sensor_id;sensor_type;location;lat;lon;timestamp;temperature;humidity
19561;DHT22;9927;47.792;10.616;2022-12-31T04:02:54;14.10;99.90
19561;DHT22;9927;47.792;10.616;2022-12-31T04:05:22;14.20;99.90
19561;DHT22;9927;47.792;10.616;2022-12-31T04:07:49;14.10;99.90
19561;DHT22;9927;47.792;10.616;2022-12-31T04:10:19;14.10;99.90
19561;DHT22;9927;47.792;10.616;2022-12-31T04:12:46;14.10;99.90
19561;DHT22;9927;47.792;10.616;2022-12-31T04:15:17;14.00;99.90
19561;DHT22;9927;47.792;10.616;2022-12-31T04:17:45;14.10;99.90
19561;DHT22;9927;47.792;10.616;2022-12-31T04:20:13;14.10;99.90
19561;DHT22;9927;47.792;10.616;2022-12-31T04:22:40;14.10;99.90
19561;DHT22;9927;47.792;10.616;2022-12-31T04:25:08;14.00;99.90
19561;DHT22;9927;47.792;10.616;2022-12-31T04:27:39;14.00;99.90
19561;DHT22;9927;47.792;10.616;2022-12-31T04:30:07;14.00;99.90
19561;DHT22;9927;47.792;10.616;2022-12-31T04:32:34;14.00;99.90
19561;DHT22;9927;47.792;10.616;2022-12-31T04:35:02;14.00;99.90
19561;DHT22;9927;47.792;10.616;2022-12-31T04:37:29;13.90;99.90
19561;DHT22;9927;47.792;10.616;2022-12-31T04:39:56;13.90;99.90
19561;DHT22;9927;47.792;10.616;2022-12-31T04:42:32;13.90;99.90
19561;DHT22;9927;47.792;10.616;2022-12-31T04:44:59;13.90;99.90
19561;DHT22;9927;47.792;10.616;2022-12-31T04:47:26;13.90;99.90
19561;DHT22;9927;47.792;10.616;2022-12-31T04:49:54;13.90;99.90
19561;DHT22;9927;47.792;10.616;2022-12-31T04:52:21;13.90;99.90
19561;DHT22;9927;47.792;10.616;2022-12-31T04:54:49;13.90;99.90
19561;DHT22;9927;47.792;10.616;2022-12-31T04:57:16;13.90;99.90
19561;DHT22;9927;47.792;10.616;2022-12-31T04:59:43;13.90;99.90
19561;DHT22;9927;47.792;10.616;2022-12-31T05:02:10;13.80;99.90
19561;DHT22;9927;47.792;10.616;2022-12-31T05:04:38;13.70;99.90
19561;DHT22;9927;47.792;10.616;2022-12-31T05:07:05;13.60;99.90
19561;DHT22;9927;47.792;10.616;2022-12-31T05:09:36;13.50;99.90
19561;DHT22;9927;47.792;10.616;2022-12-31T05:12:03;13.40;99.90
19561;DHT22;9927;47.792;10.616;2022-12-31T05:14:31;13.30;99.90
19561;DHT22;9927;47.792;10.616;2022-12-31T05:16:58;13.30;99.90
19561;DHT22;9927;47.792;10.616;2022-12-31T05:19:27;13.20;99.90
19561;DHT22;9927;47.792;10.616;2022-12-31T05:21:54;13.10;99.90
19561;DHT22;9927;47.792;10.616;2022-12-31T05:24:40;13.00;99.90
19561;DHT22;9927;47.792;10.616;2022-12-31T05:27:07;12.90;99.90
19561;DHT22;9927;47.792;10.616;2022-12-31T05:29:34;12.90;99.90
19561;DHT22;9927;47.792;10.616;2022-12-31T05:32:02;12.90;99.90
19561;DHT22;9927;47.792;10.616;2022-12-31T05:34:29;12.70;99.90
19561;DHT22;9927;47.792;10.616;2022-12-31T05:36:56;12.70;99.90
19561;DHT22;9927;47.792;10.616;2022-12-31T05:39:23;12.70;99.90
19561;DHT22;9927;47.792;10.616;2022-12-31T05:41:51;12.60;99.90
19561;DHT22;9927;47.792;10.616;2022-12-31T05:44:18;12.70;99.90
19561;DHT22;9927;47.792;10.616;2022-12-31T05:46:45;12.70;99.90
19561;DHT22;9927;47.792;10.616;2022-12-31T05:49:15;12.70;99.90
19561;DHT22;9927;47.792;10.616;2022-12-31T05:51:43;12.70;99.90
19561;DHT22;9927;47.792;10.616;2022-12-31T05:54:10;12.70;99.90
19561;DHT22;9927;47.792;10.616;2022-12-31T05:56:37;12.60;99.90
19561;DHT22;9927;47.792;10.616;2022-12-31T05:59:04;12.50;99.90
19561;DHT22;9927;47.792;10.616;2022-12-31T06:01:32;12.50;99.90
19561;DHT22;9927;47.792;10.616;2022-12-31T06:03:59;12.50;99.90
19561;DHT22;9927;47.792;10.616;2022-12-31T06:06:26;12.50;99.90
19561;DHT22;9927;47.792;10.616;2022-12-31T06:08:54;12.50;99.90
19561;DHT22;9927;47.792;10.616;2022-12-31T06:11:21;12.50;99.90
19561;DHT22;9927;47.792;10.616;2022-12-31T06:13:48;12.50;99.90
19561;DHT22;9927;47.792;10.616;2022-12-31T06:16:16;12.50;99.90
19561;DHT22;9927;47.792;10.616;2022-12-31T06:18:45;12.50;99.90
19561;DHT22;9927;47.792;10.616;2022-12-31T06:21:13;12.50;99.90
19561;DHT22;9927;47.792;10.616;2022-12-31T06:23:41;12.50;99.90
19561;DHT22;9927;47.792;10.616;2022-12-31T06:26:09;12.60;99.90
19561;DHT22;9927;47.792;10.616;2022-12-31T06:28:36;12.60;99.90
19561;DHT22;9927;47.792;10.616;2022-12-31T06:31:06;12.60;99.90
19561;DHT22;9927;47.792;10.616;2022-12-31T06:33:34;12.60;99.90
19561;DHT22;9927;47.792;10.616;2022-12-31T06:36:03;12.60;99.90
19561;DHT22;9927;47.792;10.616;2022-12-31T06:38:33;12.60;99.90
19561;DHT22;9927;47.792;10.616;2022-12-31T06:41:04;12.60;99.90
19561;DHT22;9927;47.792;10.616;2022-12-31T06:43:32;12.60;99.90
19561;DHT22;9927;47.792;10.616;2022-12-31T06:46:01;12.60;99.90
19561;DHT22;9927;47.792;10.616;2022-12-31T06:48:29;12.60;99.90
19561;DHT22;9927;47.792;10.616;2022-12-31T06:50:56;12.60;99.90
19561;DHT22;9927;47.792;10.616;2022-12-31T06:53:23;12.60;99.90
19561;DHT22;9927;47.792;10.616;2022-12-31T06:55:51;12.70;99.90
19561;DHT22;9927;47.792;10.616;2022-12-31T06:58:18;12.80;99.90
19561;DHT22;9927;47.792;10.616;2022-12-31T07:12:35;12.90;99.90
19561;DHT22;9927;47.792;10.616;2022-12-31T07:18:14;12.90;99.90
19561;DHT22;9927;47.792;10.616;2022-12-31T07:20:46;12.90;99.90
19561;DHT22;9927;47.792;10.616;2022-12-31T07:23:14;13.00;99.90
19561;DHT22;9927;47.792;10.616;2022-12-31T07:31:27;13.10;99.90
19561;DHT22;9927;47.792;10.616;2022-12-31T07:34:05;13.10;99.90
19561;DHT22;9927;47.792;10.616;2022-12-31T07:36:59;13.10;99.90
19561;DHT22;9927;47.792;10.616;2022-12-31T07:45:11;13.40;99.90
19561;DHT22;9927;47.792;10.616;2022-12-31T07:47:41;13.40;99.90
19561;DHT22;9927;47.792;10.616;2022-12-31T07:50:15;13.50;99.90
19561;DHT22;9927;47.792;10.616;2022-12-31T07:52:43;13.50;99.90
19561;DHT22;9927;47.792;10.616;2022-12-31T07:55:11;13.50;99.90
19561;DHT22;9927;47.792;10.616;2022-12-31T07:57:48;13.50;99.90
19561;DHT22;9927;47.792;10.616;2022-12-31T08:00:18;13.60;99.90
19561;DHT22;9927;47.792;10.616;2022-12-31T08:05:59;13.70;99.90
19561;DHT22;9927;47.792;10.616;2022-12-31T08:09:02;13.80;99.90
19561;DHT22;9927;47.792;10.616;2022-12-31T08:12:09;13.70;99.90
19561;DHT22;9927;47.792;10.616;2022-12-31T08:14:42;13.70;99.90
19561;DHT22;9927;47.792;10.616;2022-12-31T08:17:14;13.70;99.90
19561;DHT22;9927;47.792;10.616;2022-12-31T08:19:42;13.80;99.90
19561;DHT22;9927;47.792;10.616;2022-12-31T08:25:37;13.90;99.90
19561;DHT22;9927;47.792;10.616;2022-12-31T08:28:37;13.90;99.90
19561;DHT22;9927;47.792;10.616;2022-12-31T08:36:48;14.20;99.90
19561;DHT22;9927;47.792;10.616;2022-12-31T08:39:46;14.30;99.90
19561;DHT22;9927;47.792;10.616;2022-12-31T08:42:39;14.30;99.90
19561;DHT22;9927;47.792;10.616;2022-12-31T08:45:22;14.30;99.90
19561;DHT22;9927;47.792;10.616;2022-12-31T08:48:09;14.30;99.90
19561;DHT22;9927;47.792;10.616;2022-12-31T08:50:38;14.40;99.90
19561;DHT22;9927;47.792;10.616;2022-12-31T08:53:06;14.30;99.90
19561;DHT22;9927;47.792;10.616;2022-12-31T09:00:56;14.30;99.90
19561;DHT22;9927;47.792;10.616;2022-12-31T09:11:59;14.40;99.90
19561;DHT22;9927;47.792;10.616;2022-12-31T09:14:39;14.40;99.90
19561;DHT22;9927;47.792;10.616;2022-12-31T09:19:53;14.70;99.90
19561;DHT22;9927;47.792;10.616;2022-12-31T09:22:21;14.80;99.90
19561;DHT22;9927;47.792;10.616;2022-12-31T09:24:48;14.90;99.90
19561;DHT22;9927;47.792;10.616;2022-12-31T09:30:15;14.90;99.90
19561;DHT22;9927;47.792;10.616;2022-12-31T09:35:55;14.90;99.90
19561;DHT22;9927;47.792;10.616;2022-12-31T09:41:56;15.20;99.90
19561;DHT22;9927;47.792;10.616;2022-12-31T09:44:25;15.20;99.90
19561;DHT22;9927;47.792;10.616;2022-12-31T09:50:20;15.30;99.90
19561;DHT22;9927;47.792;10.616;2022-12-31T09:55:58;15.40;99.90
19561;DHT22;9927;47.792;10.616;2022-12-31T10:01:49;15.50;99.90
19561;DHT22;9927;47.792;10.616;2022-12-31T10:18:27;15.80;99.90
19561;DHT22;9927;47.792;10.616;2022-12-31T10:23:54;16.00;99.90
19561;DHT22;9927;47.792;10.616;2022-12-31T10:32:25;16.50;99.90
19561;DHT22;9927;47.792;10.616;2022-12-31T11:25:26;17.90;99.90
19561;DHT22;9927;47.792;10.616;2022-12-31T11:28:02;17.90;99.90
19561;DHT22;9927;47.792;10.616;2022-12-31T11:47:51;17.80;99.90
19561;DHT22;9927;47.792;10.616;2022-12-31T11:56:20;17.80;99.90
19561;DHT22;9927;47.792;10.616;2022-12-31T11:58:51;17.90;99.90
19561;DHT22;9927;47.792;10.616;2022-12-31T12:06:29;18.00;99.90
19561;DHT22;9927;47.792;10.616;2022-12-31T12:09:02;18.00;99.90
19561;DHT22;9927;47.792;10.616;2022-12-31T12:11:34;18.00;99.90
19561;DHT22;9927;47.792;10.616;2022-12-31T12:14:33;18.00;99.90
19561;DHT22;9927;47.792;10.616;2022-12-31T12:17:02;18.10;99.90
19561;DHT22;9927;47.792;10.616;2022-12-31T12:19:33;18.10;99.90
19561;DHT22;9927;47.792;10.616;2022-12-31T12:22:13;18.10;99.90
19561;DHT22;9927;47.792;10.616;2022-12-31T12:25:02;18.10;99.90
19561;DHT22;9927;47.792;10.616;2022-12-31T12:27:32;18.10;99.90
19561;DHT22;9927;47.792;10.616;2022-12-31T12:30:28;18.20;99.90
19561;DHT22;9927;47.792;10.616;2022-12-31T12:33:00;18.20;99.90
19561;DHT22;9927;47.792;10.616;2022-12-31T12:35:30;18.20;99.90
19561;DHT22;9927;47.792;10.616;2022-12-31T12:38:03;18.30;99.90
19561;DHT22;9927;47.792;10.616;2022-12-31T12:40:32;18.30;99.90
19561;DHT22;9927;47.792;10.616;2022-12-31T12:43:01;18.30;99.90
19561;DHT22;9927;47.792;10.616;2022-12-31T12:45:41;18.20;99.90
19561;DHT22;9927;47.792;10.616;2022-12-31T12:48:30;18.20;99.90
19561;DHT22;9927;47.792;10.616;2022-12-31T12:50:59;18.10;99.90
19561;DHT22;9927;47.792;10.616;2022-12-31T12:56:55;17.90;99.90
19561;DHT22;9927;47.792;10.616;2022-12-31T13:02:41;17.80;99.90
19561;DHT22;9927;47.792;10.616;2022-12-31T13:05:24;17.80;99.90
19561;DHT22;9927;47.792;10.616;2022-12-31T13:08:25;17.80;99.90
19561;DHT22;9927;47.792;10.616;2022-12-31T13:19:55;17.80;99.90
19561;DHT22;9927;47.792;10.616;2022-12-31T13:27:45;17.50;99.90
19561;DHT22;9927;47.792;10.616;2022-12-31T13:32:51;17.30;99.90
19561;DHT22;9927;47.792;10.616;2022-12-31T13:38:18;17.20;99.90
19561;DHT22;9927;47.792;10.616;2022-12-31T13:46:30;16.90;99.90
19561;DHT22;9927;47.792;10.616;2022-12-31T13:49:04;16.80;99.90
19561;DHT22;9927;47.792;10.616;2022-12-31T13:51:46;16.70;99.90
19561;DHT22;9927;47.792;10.616;2022-12-31T13:59:57;16.40;99.90
19561;DHT22;9927;47.792;10.616;2022-12-31T14:02:41;16.40;99.90
19561;DHT22;9927;47.792;10.616;2022-12-31T14:07:46;16.30;99.90
19561;DHT22;9927;47.792;10.616;2022-12-31T14:10:15;16.30;99.90
19561;DHT22;9927;47.792;10.616;2022-12-31T14:12:50;16.20;99.90
19561;DHT22;9927;47.792;10.616;2022-12-31T14:16:23;16.20;99.90
19561;DHT22;9927;47.792;10.616;2022-12-31T14:18:38;16.10;99.90
19561;DHT22;9927;47.792;10.616;2022-12-31T14:21:24;16.00;99.90
19561;DHT22;9927;47.792;10.616;2022-12-31T14:24:12;15.90;99.90
19561;DHT22;9927;47.792;10.616;2022-12-31T14:26:45;15.80;99.90
19561;DHT22;9927;47.792;10.616;2022-12-31T14:29:32;15.70;99.90
19561;DHT22;9927;47.792;10.616;2022-12-31T14:32:06;15.70;99.90
19561;DHT22;9927;47.792;10.616;2022-12-31T14:43:38;15.30;99.90
19561;DHT22;9927;47.792;10.616;2022-12-31T14:52:21;14.90;99.90
19561;DHT22;9927;47.792;10.616;2022-12-31T14:57:35;14.70;99.90
19561;DHT22;9927;47.792;10.616;2022-12-31T15:03:02;14.50;99.90
19561;DHT22;9927;47.792;10.616;2022-12-31T15:05:33;14.40;99.90
19561;DHT22;9927;47.792;10.616;2022-12-31T15:16:47;14.10;99.90
19561;DHT22;9927;47.792;10.616;2022-12-31T15:20:35;14.00;99.90
19561;DHT22;9927;47.792;10.616;2022-12-31T15:22:45;14.00;99.90
19561;DHT22;9927;47.792;10.616;2022-12-31T15:25:35;13.60;99.90
19561;DHT22;9927;47.792;10.616;2022-12-31T15:28:45;13.60;99.90
19561;DHT22;9927;47.792;10.616;2022-12-31T15:31:18;13.20;99.90
19561;DHT22;9927;47.792;10.616;2022-12-31T15:34:02;13.10;99.90
19561;DHT22;9927;47.792;10.616;2022-12-31T15:36:34;13.00;99.90
19561;DHT22;9927;47.792;10.616;2022-12-31T15:41:39;12.60;99.90
19561;DHT22;9927;47.792;10.616;2022-12-31T15:44:47;12.50;99.90
19561;DHT22;9927;47.792;10.616;2022-12-31T15:49:46;12.40;99.90
19561;DHT22;9927;47.792;10.616;2022-12-31T15:52:25;12.30;99.90
19561;DHT22;9927;47.792;10.616;2022-12-31T16:00:04;11.90;99.90
19561;DHT22;9927;47.792;10.616;2022-12-31T16:02:31;11.70;99.90
19561;DHT22;9927;47.792;10.616;2022-12-31T16:04:59;11.60;99.90
19561;DHT22;9927;47.792;10.616;2022-12-31T16:07:27;11.60;99.90
19561;DHT22;9927;47.792;10.616;2022-12-31T16:09:58;11.60;99.90
19561;DHT22;9927;47.792;10.616;2022-12-31T16:12:30;11.70;99.90
19561;DHT22;9927;47.792;10.616;2022-12-31T16:15:20;11.60;99.90
19561;DHT22;9927;47.792;10.616;2022-12-31T16:17:58;11.60;99.90
19561;DHT22;9927;47.792;10.616;2022-12-31T16:20:27;11.70;99.90
19561;DHT22;9927;47.792;10.616;2022-12-31T16:23:00;11.70;99.90
19561;DHT22;9927;47.792;10.616;2022-12-31T16:25:30;11.40;99.90
19561;DHT22;9927;47.792;10.616;2022-12-31T16:28:00;11.40;99.90
19561;DHT22;9927;47.792;10.616;2022-12-31T16:30:30;11.30;99.90
19561;DHT22;9927;47.792;10.616;2022-12-31T16:33:02;11.20;99.90
19561;DHT22;9927;47.792;10.616;2022-12-31T16:35:33;10.90;99.90
19561;DHT22;9927;47.792;10.616;2022-12-31T16:38:11;10.80;99.90
19561;DHT22;9927;47.792;10.616;2022-12-31T16:40:41;10.60;99.90
19561;DHT22;9927;47.792;10.616;2022-12-31T16:43:24;10.60;99.90
19561;DHT22;9927;47.792;10.616;2022-12-31T16:45:57;10.60;99.90
19561;DHT22;9927;47.792;10.616;2022-12-31T16:48:33;10.60;99.90
19561;DHT22;9927;47.792;10.616;2022-12-31T16:51:00;10.60;99.90
19561;DHT22;9927;47.792;10.616;2022-12-31T16:53:29;10.60;99.90
19561;DHT22;9927;47.792;10.616;2022-12-31T16:56:04;10.60;99.90
19561;DHT22;9927;47.792;10.616;2022-12-31T16:58:42;10.50;99.90
19561;DHT22;9927;47.792;10.616;2022-12-31T17:01:12;10.60;99.90
19561;DHT22;9927;47.792;10.616;2022-12-31T17:03:45;10.50;99.90
19561;DHT22;9927;47.792;10.616;2022-12-31T17:06:15;10.60;99.90
19561;DHT22;9927;47.792;10.616;2022-12-31T17:12:02;10.40;99.90
19561;DHT22;9927;47.792;10.616;2022-12-31T17:14:47;10.30;99.90
19561;DHT22;9927;47.792;10.616;2022-12-31T17:17:26;10.10;99.90
19561;DHT22;9927;47.792;10.616;2022-12-31T17:19:58;10.00;99.90
19561;DHT22;9927;47.792;10.616;2022-12-31T17:27:30;9.90;99.90
19561;DHT22;9927;47.792;10.616;2022-12-31T17:35:40;9.70;99.90
19561;DHT22;9927;47.792;10.616;2022-12-31T17:38:29;9.70;99.90
19561;DHT22;9927;47.792;10.616;2022-12-31T17:41:12;9.70;99.90
19561;DHT22;9927;47.792;10.616;2022-12-31T17:43:40;9.70;99.90
19561;DHT22;9927;47.792;10.616;2022-12-31T17:46:11;9.60;99.90
19561;DHT22;9927;47.792;10.616;2022-12-31T17:48:39;9.60;99.90
19561;DHT22;9927;47.792;10.616;2022-12-31T17:51:07;9.60;99.90
19561;DHT22;9927;47.792;10.616;2022-12-31T17:53:35;9.60;99.90
19561;DHT22;9927;47.792;10.616;2022-12-31T17:56:04;9.70;99.90
19561;DHT22;9927;47.792;10.616;2022-12-31T17:58:35;9.70;99.90
19561;DHT22;9927;47.792;10.616;2022-12-31T18:01:08;9.70;99.90
19561;DHT22;9927;47.792;10.616;2022-12-31T18:03:35;9.60;99.90
19561;DHT22;9927;47.792;10.616;2022-12-31T18:06:03;9.70;99.90
19561;DHT22;9927;47.792;10.616;2022-12-31T18:08:31;9.70;99.90
19561;DHT22;9927;47.792;10.616;2022-12-31T18:10:58;9.70;99.90
19561;DHT22;9927;47.792;10.616;2022-12-31T18:13:26;9.70;99.90
19561;DHT22;9927;47.792;10.616;2022-12-31T18:15:54;9.70;99.90
19561;DHT22;9927;47.792;10.616;2022-12-31T18:18:26;9.70;99.90
19561;DHT22;9927;47.792;10.616;2022-12-31T18:20:59;9.80;99.90
19561;DHT22;9927;47.792;10.616;2022-12-31T18:23:30;9.70;99.90
19561;DHT22;9927;47.792;10.616;2022-12-31T18:25:59;9.70;99.90
19561;DHT22;9927;47.792;10.616;2022-12-31T18:28:26;9.70;99.90
19561;DHT22;9927;47.792;10.616;2022-12-31T18:30:53;9.70;99.90
19561;DHT22;9927;47.792;10.616;2022-12-31T18:33:22;9.70;99.90
19561;DHT22;9927;47.792;10.616;2022-12-31T18:35:51;9.70;99.90
19561;DHT22;9927;47.792;10.616;2022-12-31T18:38:36;9.80;99.90
19561;DHT22;9927;47.792;10.616;2022-12-31T18:41:04;9.70;99.90
19561;DHT22;9927;47.792;10.616;2022-12-31T18:43:32;9.70;99.90
19561;DHT22;9927;47.792;10.616;2022-12-31T18:45:59;9.70;99.90
19561;DHT22;9927;47.792;10.616;2022-12-31T18:48:26;9.70;99.90
19561;DHT22;9927;47.792;10.616;2022-12-31T18:50:55;9.60;99.90
19561;DHT22;9927;47.792;10.616;2022-12-31T18:53:22;9.40;99.90
19561;DHT22;9927;47.792;10.616;2022-12-31T18:55:52;9.40;99.90
19561;DHT22;9927;47.792;10.616;2022-12-31T18:58:20;9.40;99.90
19561;DHT22;9927;47.792;10.616;2022-12-31T19:00:49;9.40;99.90
19561;DHT22;9927;47.792;10.616;2022-12-31T19:03:19;9.40;99.90
19561;DHT22;9927;47.792;10.616;2022-12-31T19:05:47;9.50;99.90
19561;DHT22;9927;47.792;10.616;2022-12-31T19:08:21;9.50;99.90
19561;DHT22;9927;47.792;10.616;2022-12-31T19:10:50;9.60;99.90
19561;DHT22;9927;47.792;10.616;2022-12-31T19:13:18;9.60;99.90
19561;DHT22;9927;47.792;10.616;2022-12-31T19:15:51;9.60;99.90
19561;DHT22;9927;47.792;10.616;2022-12-31T19:18:18;9.60;99.90
19561;DHT22;9927;47.792;10.616;2022-12-31T19:20:46;9.60;99.90
19561;DHT22;9927;47.792;10.616;2022-12-31T19:23:16;9.60;99.90
19561;DHT22;9927;47.792;10.616;2022-12-31T19:25:45;9.70;99.90
19561;DHT22;9927;47.792;10.616;2022-12-31T19:28:24;9.70;99.90
19561;DHT22;9927;47.792;10.616;2022-12-31T19:30:52;9.70;99.90
19561;DHT22;9927;47.792;10.616;2022-12-31T19:33:19;9.70;99.90
19561;DHT22;9927;47.792;10.616;2022-12-31T19:35:47;9.50;99.90
19561;DHT22;9927;47.792;10.616;2022-12-31T19:40:45;9.50;99.90
19561;DHT22;9927;47.792;10.616;2022-12-31T19:43:13;9.40;99.90
19561;DHT22;9927;47.792;10.616;2022-12-31T19:45:42;9.30;99.90
19561;DHT22;9927;47.792;10.616;2022-12-31T19:48:12;9.30;99.90
19561;DHT22;9927;47.792;10.616;2022-12-31T19:50:42;9.30;99.90
19561;DHT22;9927;47.792;10.616;2022-12-31T19:53:16;9.20;99.90
19561;DHT22;9927;47.792;10.616;2022-12-31T19:55:43;9.20;99.90
19561;DHT22;9927;47.792;10.616;2022-12-31T19:58:29;9.20;99.90
19561;DHT22;9927;47.792;10.616;2022-12-31T20:00:58;9.20;99.90
19561;DHT22;9927;47.792;10.616;2022-12-31T20:03:30;9.10;99.90
19561;DHT22;9927;47.792;10.616;2022-12-31T20:06:09;9.10;99.90
19561;DHT22;9927;47.792;10.616;2022-12-31T20:08:37;9.10;99.90
19561;DHT22;9927;47.792;10.616;2022-12-31T20:11:19;9.10;99.90
19561;DHT22;9927;47.792;10.616;2022-12-31T20:13:48;9.00;99.90
19561;DHT22;9927;47.792;10.616;2022-12-31T20:16:17;8.90;99.90
19561;DHT22;9927;47.792;10.616;2022-12-31T20:18:46;9.00;99.90
19561;DHT22;9927;47.792;10.616;2022-12-31T20:21:16;9.00;99.90
19561;DHT22;9927;47.792;10.616;2022-12-31T20:23:44;8.90;99.90
19561;DHT22;9927;47.792;10.616;2022-12-31T20:26:11;8.80;99.90
19561;DHT22;9927;47.792;10.616;2022-12-31T20:28:39;8.90;99.90
19561;DHT22;9927;47.792;10.616;2022-12-31T20:31:12;8.80;99.90
19561;DHT22;9927;47.792;10.616;2022-12-31T20:33:39;8.70;99.90
19561;DHT22;9927;47.792;10.616;2022-12-31T20:36:10;8.70;99.90
19561;DHT22;9927;47.792;10.616;2022-12-31T20:38:38;8.60;99.90
19561;DHT22;9927;47.792;10.616;2022-12-31T20:41:10;8.50;99.90
19561;DHT22;9927;47.792;10.616;2022-12-31T20:43:38;8.40;99.90
19561;DHT22;9927;47.792;10.616;2022-12-31T20:46:11;8.40;99.90
19561;DHT22;9927;47.792;10.616;2022-12-31T20:48:42;8.40;99.90
19561;DHT22;9927;47.792;10.616;2022-12-31T20:51:11;8.50;99.90
19561;DHT22;9927;47.792;10.616;2022-12-31T20:53:38;8.50;99.90
19561;DHT22;9927;47.792;10.616;2022-12-31T20:56:07;8.60;99.90
19561;DHT22;9927;47.792;10.616;2022-12-31T20:58:35;8.60;99.90
19561;DHT22;9927;47.792;10.616;2022-12-31T21:01:05;8.60;99.90
19561;DHT22;9927;47.792;10.616;2022-12-31T21:03:42;8.60;99.90
19561;DHT22;9927;47.792;10.616;2022-12-31T21:06:30;8.40;99.90
19561;DHT22;9927;47.792;10.616;2022-12-31T21:08:59;8.40;99.90
19561;DHT22;9927;47.792;10.616;2022-12-31T21:11:27;8.50;99.90
19561;DHT22;9927;47.792;10.616;2022-12-31T21:14:14;8.40;99.90
19561;DHT22;9927;47.792;10.616;2022-12-31T21:16:42;8.30;99.90
19561;DHT22;9927;47.792;10.616;2022-12-31T21:19:09;8.20;99.90
19561;DHT22;9927;47.792;10.616;2022-12-31T21:21:36;8.20;99.90
19561;DHT22;9927;47.792;10.616;2022-12-31T21:24:04;8.30;99.90
19561;DHT22;9927;47.792;10.616;2022-12-31T21:29:00;8.30;99.90
19561;DHT22;9927;47.792;10.616;2022-12-31T21:31:27;8.30;99.90
19561;DHT22;9927;47.792;10.616;2022-12-31T21:33:54;8.20;99.90
19561;DHT22;9927;47.792;10.616;2022-12-31T21:36:22;8.30;99.90
19561;DHT22;9927;47.792;10.616;2022-12-31T21:38:51;8.30;99.90
19561;DHT22;9927;47.792;10.616;2022-12-31T21:41:21;8.40;99.90
19561;DHT22;9927;47.792;10.616;2022-12-31T21:44:10;8.30;99.90
19561;DHT22;9927;47.792;10.616;2022-12-31T21:49:25;8.40;99.90
19561;DHT22;9927;47.792;10.616;2022-12-31T21:51:52;8.30;99.90
19561;DHT22;9927;47.792;10.616;2022-12-31T21:54:38;8.30;99.90
19561;DHT22;9927;47.792;10.616;2022-12-31T21:57:24;8.30;99.90
19561;DHT22;9927;47.792;10.616;2022-12-31T21:59:51;8.30;99.90
19561;DHT22;9927;47.792;10.616;2022-12-31T22:05:58;8.10;99.90
19561;DHT22;9927;47.792;10.616;2022-12-31T22:08:27;8.00;99.90
19561;DHT22;9927;47.792;10.616;2022-12-31T22:10:55;8.00;99.90
19561;DHT22;9927;47.792;10.616;2022-12-31T22:13:23;8.00;99.90
19561;DHT22;9927;47.792;10.616;2022-12-31T22:15:53;8.00;99.90
19561;DHT22;9927;47.792;10.616;2022-12-31T22:18:30;7.90;99.90
19561;DHT22;9927;47.792;10.616;2022-12-31T22:21:05;7.90;99.90
19561;DHT22;9927;47.792;10.616;2022-12-31T22:23:42;7.90;99.90
19561;DHT22;9927;47.792;10.616;2022-12-31T22:26:13;7.90;99.90
19561;DHT22;9927;47.792;10.616;2022-12-31T22:28:42;8.00;99.90
19561;DHT22;9927;47.792;10.616;2022-12-31T22:31:16;8.00;99.90
19561;DHT22;9927;47.792;10.616;2022-12-31T22:33:44;8.00;99.90
19561;DHT22;9927;47.792;10.616;2022-12-31T22:36:21;8.00;99.90
19561;DHT22;9927;47.792;10.616;2022-12-31T22:38:49;8.10;99.90
19561;DHT22;9927;47.792;10.616;2022-12-31T22:41:19;8.10;99.90
19561;DHT22;9927;47.792;10.616;2022-12-31T22:43:50;8.10;99.90
19561;DHT22;9927;47.792;10.616;2022-12-31T22:46:20;8.20;99.90
19561;DHT22;9927;47.792;10.616;2022-12-31T22:48:48;8.40;99.90
19561;DHT22;9927;47.792;10.616;2022-12-31T22:51:17;8.40;99.90
19561;DHT22;9927;47.792;10.616;2022-12-31T22:53:45;8.40;99.90
19561;DHT22;9927;47.792;10.616;2022-12-31T22:56:15;8.40;99.90
19561;DHT22;9927;47.792;10.616;2022-12-31T22:58:42;8.40;99.90
19561;DHT22;9927;47.792;10.616;2022-12-31T23:01:23;8.40;99.90
19561;DHT22;9927;47.792;10.616;2022-12-31T23:03:52;8.50;99.90
19561;DHT22;9927;47.792;10.616;2022-12-31T23:06:22;8.50;99.90
19561;DHT22;9927;47.792;10.616;2022-12-31T23:08:50;8.60;99.90
19561;DHT22;9927;47.792;10.616;2022-12-31T23:11:38;8.60;99.90
19561;DHT22;9927;47.792;10.616;2022-12-31T23:14:06;8.30;99.90
19561;DHT22;9927;47.792;10.616;2022-12-31T23:16:52;8.30;99.90
19561;DHT22;9927;47.792;10.616;2022-12-31T23:19:56;8.10;99.90
19561;DHT22;9927;47.792;10.616;2022-12-31T23:22:42;8.10;99.90
19561;DHT22;9927;47.792;10.616;2022-12-31T23:25:30;8.20;99.90
19561;DHT22;9927;47.792;10.616;2022-12-31T23:27:58;8.10;99.90
19561;DHT22;9927;47.792;10.616;2022-12-31T23:30:26;8.10;99.90
19561;DHT22;9927;47.792;10.616;2022-12-31T23:32:53;8.10;99.90
19561;DHT22;9927;47.792;10.616;2022-12-31T23:35:20;8.20;99.90
19561;DHT22;9927;47.792;10.616;2022-12-31T23:37:48;8.20;99.90
19561;DHT22;9927;47.792;10.616;2022-12-31T23:40:15;8.20;99.90
19561;DHT22;9927;47.792;10.616;2022-12-31T23:42:48;8.30;99.90
19561;DHT22;9927;47.792;10.616;2022-12-31T23:45:16;8.30;99.90
19561;DHT22;9927;47.792;10.616;2022-12-31T23:47:43;8.30;99.90
19561;DHT22;9927;47.792;10.616;2022-12-31T23:50:10;8.30;99.90
19561;DHT22;9927;47.792;10.616;2022-12-31T23:52:37;8.30;99.90
19561;DHT22;9927;47.792;10.616;2022-12-31T23:55:04;8.30;99.90
19561;DHT22;9927;47.792;10.616;2022-12-31T23:57:32;8.30;99.90
19561;DHT22;9927;47.792;10.616;2022-12-31T23:59:59;8.30;99.90
